Boynton Beach, Florida
Current Conditions -  °F | °C
As of 12:50 PM on Tuesday 21 Oct 2014 (Local Time) from KBCT Reporting Station
Broken Clouds Broken Clouds  
Wind Chill: 27°   Ceiling: 5000
Heat Index: 29°   Visibility: 10mi
Dew Point: 22°   Wind: 14mph
Humidity: 74%   Direction: 210°SSW
Pressure: 29.94"   Gusts: NA
Location:  26.53°N, 80.06°W
Report Text: KBCT 211650Z 21012KT 10SM BKN050 BKN060 27/22 A2994
Loading
Personal Weather Stations






























Interactive Weather Map
Tropical Storm Tracking
New forecast layout! Learn more

10-Day Weather Forecast

Advertisements
Track Severe Weather on mobile